Time;durP1;ratioP1;P1;durP2;ratioP2;P2;SDS_P1;SDS_P2;PMS_P1;PMS_P2;Temp;Humidity;BMP_temperature;BMP_pressure;BME280_temperature;BME280_humidity;BME280_pressure;Samples;Min_cycle;Max_cycle;Signal;HPM_P1;HPM_P2
2023/08/02 00:00:05;;;;;;;17.90;17.30;;;18.00;99.90;;;;;;5038610;28;20216;-69
2023/08/02 00:02:32;;;;;;;17.48;16.77;;;18.00;99.90;;;;;;5029689;28;20228;-69
2023/08/02 00:04:58;;;;;;;17.33;16.70;;;18.10;99.90;;;;;;5037088;28;20582;-68
2023/08/02 00:07:26;;;;;;;17.47;16.87;;;18.00;99.90;;;;;;5039662;28;20200;-68
2023/08/02 00:09:53;;;;;;;18.10;17.50;;;18.00;99.90;;;;;;5037321;28;20654;-69
2023/08/02 00:12:20;;;;;;;16.98;16.27;;;18.00;99.90;;;;;;5038338;28;20216;-69
2023/08/02 00:14:47;;;;;;;14.95;14.45;;;17.90;99.90;;;;;;5038559;28;20200;-68
2023/08/02 00:17:14;;;;;;;15.60;15.07;;;17.80;99.90;;;;;;5037995;28;20678;-68
2023/08/02 00:19:40;;;;;;;16.70;16.10;;;17.80;99.90;;;;;;5039574;28;20196;-66
2023/08/02 00:22:07;;;;;;;18.40;17.75;;;17.70;99.90;;;;;;5039063;28;20199;-68
2023/08/02 00:24:35;;;;;;;18.17;17.58;;;17.80;99.90;;;;;;5038127;28;20211;-68
2023/08/02 00:27:02;;;;;;;19.55;18.65;;;17.70;99.90;;;;;;5036195;28;20573;-68
2023/08/02 00:29:29;;;;;;;16.08;15.52;;;17.70;99.90;;;;;;5037785;28;20226;-68
2023/08/02 00:31:56;;;;;;;16.73;16.13;;;17.70;99.90;;;;;;5039041;28;20741;-69
2023/08/02 00:34:23;;;;;;;16.63;16.02;;;17.60;99.90;;;;;;5036979;28;20819;-68
2023/08/02 00:36:50;;;;;;;17.63;17.03;;;17.60;99.90;;;;;;5036726;28;20675;-68
2023/08/02 00:39:18;;;;;;;18.47;17.77;;;17.50;99.90;;;;;;5036816;28;20239;-67
2023/08/02 00:41:46;;;;;;;19.50;18.80;;;17.50;99.90;;;;;;5037459;28;20220;-68
2023/08/02 00:44:13;;;;;;;17.98;17.38;;;17.50;99.90;;;;;;5037615;28;20207;-67
2023/08/02 00:46:40;;;;;;;16.88;16.25;;;17.50;99.90;;;;;;5039172;28;20200;-67
2023/08/02 00:49:09;;;;;;;19.17;18.48;;;17.50;99.90;;;;;;5042104;28;20204;-66
2023/08/02 00:51:36;;;;;;;16.58;15.98;;;17.50;99.90;;;;;;5044239;28;20234;-68
2023/08/02 00:54:05;;;;;;;15.80;15.27;;;17.50;99.90;;;;;;5047181;28;20205;-68
2023/08/02 00:56:32;;;;;;;17.57;16.77;;;17.50;99.90;;;;;;5043748;28;20199;-67
2023/08/02 00:59:00;;;;;;;15.35;14.80;;;17.40;99.90;;;;;;5040589;28;20303;-68
2023/08/02 01:01:27;;;;;;;15.07;14.57;;;17.30;99.90;;;;;;5037359;28;20220;-68
2023/08/02 01:03:55;;;;;;;13.60;13.10;;;17.40;99.90;;;;;;5031435;28;20193;-67
2023/08/02 01:06:29;;;;;;;15.65;15.07;;;17.30;99.90;;;;;;5034309;28;20210;-67
2023/08/02 01:09:01;;;;;;;15.70;15.20;;;17.30;99.90;;;;;;5034362;28;20211;-68
2023/08/02 01:11:32;;;;;;;15.65;15.13;;;17.30;99.90;;;;;;5033229;28;20670;-67
2023/08/02 01:14:06;;;;;;;15.65;15.13;;;17.30;99.90;;;;;;5032929;28;20310;-69
2023/08/02 01:16:35;;;;;;;15.38;14.88;;;17.30;99.90;;;;;;5032716;28;20193;-67
2023/08/02 01:19:03;;;;;;;26.45;25.38;;;17.30;99.90;;;;;;5032436;28;20208;-68
2023/08/02 01:21:31;;;;;;;16.08;15.48;;;17.30;99.90;;;;;;5032914;28;20225;-68
2023/08/02 01:23:58;;;;;;;14.13;13.63;;;17.40;99.90;;;;;;5033394;28;20238;-67
2023/08/02 01:26:27;;;;;;;15.55;14.95;;;17.40;99.90;;;;;;5033577;28;20259;-67
2023/08/02 01:28:56;;;;;;;14.15;13.65;;;17.30;99.90;;;;;;5033447;28;20563;-69
2023/08/02 01:31:23;;;;;;;20.35;19.58;;;17.40;99.90;;;;;;5032381;28;20754;-67
2023/08/02 01:33:54;;;;;;;15.15;14.65;;;17.30;99.90;;;;;;5033123;28;20211;-68
2023/08/02 01:36:21;;;;;;;15.52;14.93;;;17.30;99.90;;;;;;5033119;28;20211;-68
2023/08/02 01:38:49;;;;;;;15.63;15.10;;;17.30;99.90;;;;;;5033338;28;20574;-68
2023/08/02 01:41:16;;;;;;;15.68;15.13;;;17.40;99.90;;;;;;5032395;28;20304;-68
2023/08/02 01:43:43;;;;;;;17.63;17.02;;;17.40;99.90;;;;;;5041744;28;20291;-67
2023/08/02 01:46:10;;;;;;;16.27;15.73;;;17.40;99.90;;;;;;5051980;28;20298;-68
2023/08/02 01:48:36;;;;;;;14.25;13.75;;;17.40;99.90;;;;;;5051047;28;20235;-69
2023/08/02 01:51:03;;;;;;;16.95;16.35;;;17.50;99.90;;;;;;5048021;28;20224;-68
2023/08/02 01:53:30;;;;;;;16.23;15.68;;;17.50;99.90;;;;;;5051911;28;20200;-68
2023/08/02 01:55:58;;;;;;;17.55;16.95;;;17.60;99.90;;;;;;5051960;28;20188;-68
2023/08/02 01:58:25;;;;;;;17.75;17.15;;;17.50;99.90;;;;;;5051888;28;20574;-68
2023/08/02 02:00:52;;;;;;;17.77;17.17;;;17.60;99.90;;;;;;5050863;28;20314;-68
2023/08/02 02:03:19;;;;;;;16.30;15.70;;;17.60;99.90;;;;;;5051485;28;20208;-69
2023/08/02 02:05:52;;;;;;;16.92;16.33;;;17.60;99.90;;;;;;5051742;28;20214;-68
2023/08/02 02:08:19;;;;;;;18.38;17.70;;;17.60;99.90;;;;;;5053893;28;20227;-68
2023/08/02 02:10:49;;;;;;;18.02;17.40;;;17.60;99.90;;;;;;5053176;28;20860;-68
2023/08/02 02:13:17;;;;;;;18.98;18.33;;;17.70;99.90;;;;;;5074801;22;20249;-65
2023/08/02 02:15:44;;;;;;;18.90;18.25;;;17.70;99.90;;;;;;5072052;28;20295;-65
2023/08/02 02:18:11;;;;;;;18.63;17.98;;;17.70;99.90;;;;;;5074180;28;20211;-67
2023/08/02 02:20:38;;;;;;;18.25;17.63;;;17.80;99.90;;;;;;5072601;28;20214;-67
2023/08/02 02:23:05;;;;;;;18.92;18.23;;;17.80;99.90;;;;;;5073334;28;20242;-67
2023/08/02 02:25:32;;;;;;;19.92;19.23;;;17.80;99.90;;;;;;5073487;28;20203;-66
2023/08/02 02:27:58;;;;;;;19.30;18.60;;;17.80;99.90;;;;;;5073443;28;20575;-66
2023/08/02 02:30:27;;;;;;;20.90;20.20;;;17.90;99.90;;;;;;5072594;28;20290;-66
2023/08/02 02:32:53;;;;;;;22.10;21.30;;;17.90;99.90;;;;;;5072880;28;20234;-65
2023/08/02 02:35:20;;;;;;;21.42;20.70;;;18.00;99.90;;;;;;5073034;28;20217;-67
2023/08/02 02:37:47;;;;;;;20.83;20.13;;;18.00;99.90;;;;;;5073103;28;20214;-66
2023/08/02 02:40:14;;;;;;;19.95;19.25;;;18.00;99.90;;;;;;5072133;28;20238;-67
2023/08/02 02:42:41;;;;;;;19.42;18.73;;;18.10;99.90;;;;;;5072964;28;20229;-67
2023/08/02 02:45:09;;;;;;;19.55;18.85;;;18.10;99.90;;;;;;5071249;28;20673;-67
2023/08/02 02:47:38;;;;;;;16.33;15.77;;;18.10;99.90;;;;;;5073804;28;20233;-66
2023/08/02 02:50:05;;;;;;;16.75;16.17;;;18.10;99.90;;;;;;5072475;28;20204;-67
2023/08/02 02:52:32;;;;;;;16.00;15.47;;;18.00;99.90;;;;;;5073261;28;20318;-65
2023/08/02 02:54:59;;;;;;;14.65;14.15;;;18.00;99.90;;;;;;5057173;28;20572;-66
2023/08/02 02:57:26;;;;;;;13.13;12.70;;;18.00;99.90;;;;;;5053379;28;20203;-66
2023/08/02 02:59:53;;;;;;;13.48;12.98;;;18.00;99.90;;;;;;5053888;28;20211;-66
2023/08/02 03:02:19;;;;;;;12.95;12.52;;;17.90;99.90;;;;;;5054124;28;20253;-66
2023/08/02 03:04:48;;;;;;;12.18;11.77;;;17.90;99.90;;;;;;5053787;28;20210;-66
2023/08/02 03:07:14;;;;;;;11.50;11.10;;;17.80;99.90;;;;;;5052579;28;20208;-66
2023/08/02 03:09:41;;;;;;;12.30;11.90;;;17.80;99.90;;;;;;5051946;28;20273;-67
2023/08/02 03:12:09;;;;;;;12.23;11.73;;;17.80;99.90;;;;;;5052554;28;20226;-66
2023/08/02 03:14:36;;;;;;;10.80;10.40;;;17.80;99.90;;;;;;5052792;28;20644;-65
2023/08/02 03:17:02;;;;;;;10.77;10.38;;;17.70;99.90;;;;;;5052627;28;20199;-67
2023/08/02 03:19:29;;;;;;;10.85;10.45;;;17.70;99.90;;;;;;5051436;28;20231;-66
2023/08/02 03:21:57;;;;;;;11.30;10.80;;;17.70;99.90;;;;;;5052114;28;20254;-66
2023/08/02 03:24:24;;;;;;;11.30;10.90;;;17.60;99.90;;;;;;5052227;28;20231;-64
2023/08/02 03:26:51;;;;;;;11.47;11.07;;;17.70;99.90;;;;;;5052336;28;20290;-66
2023/08/02 03:29:18;;;;;;;11.27;10.88;;;17.60;99.90;;;;;;5052196;28;20230;-65
2023/08/02 03:31:44;;;;;;;11.82;11.43;;;17.60;99.90;;;;;;5057609;28;20345;-65
2023/08/02 03:34:12;;;;;;;12.02;11.63;;;17.50;99.90;;;;;;5057431;28;20227;-67
2023/08/02 03:36:42;;;;;;;12.60;12.20;;;17.50;99.90;;;;;;5056899;28;20223;-65
2023/08/02 03:39:10;;;;;;;12.10;11.70;;;17.50;99.90;;;;;;5052035;28;20204;-66
2023/08/02 03:41:37;;;;;;;11.30;10.90;;;17.50;99.90;;;;;;5051275;28;20294;-66
2023/08/02 03:44:04;;;;;;;10.93;10.53;;;17.50;99.90;;;;;;5051083;28;20265;-65
2023/08/02 03:46:31;;;;;;;10.88;10.48;;;17.50;99.90;;;;;;5051175;28;20306;-68
2023/08/02 03:48:58;;;;;;;12.00;11.53;;;17.40;99.90;;;;;;5050547;28;20736;-67
2023/08/02 03:51:26;;;;;;;11.40;11.00;;;17.50;99.90;;;;;;5050673;28;20212;-67
2023/08/02 03:53:53;;;;;;;10.90;10.50;;;17.40;99.90;;;;;;5051239;28;20277;-66
2023/08/02 03:56:21;;;;;;;10.90;10.50;;;17.40;99.90;;;;;;5050735;28;20210;-67
2023/08/02 03:58:47;;;;;;;10.93;10.53;;;17.50;99.90;;;;;;5050680;28;20211;-66
2023/08/02 04:01:14;;;;;;;10.67;10.27;;;17.50;99.90;;;;;;5049960;28;20622;-66
2023/08/02 04:03:41;;;;;;;11.53;11.13;;;17.50;99.90;;;;;;5050251;28;20669;-66
2023/08/02 04:06:08;;;;;;;10.77;10.37;;;17.50;99.90;;;;;;5049863;28;20290;-67
2023/08/02 04:08:35;;;;;;;10.93;10.57;;;17.50;99.90;;;;;;5051493;28;20211;-68
2023/08/02 04:11:04;;;;;;;11.65;11.25;;;17.50;99.90;;;;;;5050699;28;20246;-67
2023/08/02 04:13:33;;;;;;;10.48;10.07;;;17.50;99.90;;;;;;5051569;28;20243;-67
2023/08/02 04:15:59;;;;;;;10.60;10.20;;;17.50;99.90;;;;;;5051809;28;20258;-67
2023/08/02 04:18:26;;;;;;;10.10;9.70;;;17.50;99.90;;;;;;5052318;28;20204;-67
2023/08/02 04:20:53;;;;;;;10.40;10.00;;;17.50;99.90;;;;;;5050823;28;20590;-69
2023/08/02 04:23:20;;;;;;;11.30;10.90;;;17.50;99.90;;;;;;5051276;28;20224;-68
2023/08/02 04:25:47;;;;;;;10.50;10.10;;;17.50;99.90;;;;;;5051544;28;20214;-66
2023/08/02 04:28:14;;;;;;;10.68;10.30;;;17.50;99.90;;;;;;5049892;28;20214;-67
2023/08/02 04:30:49;;;;;;;9.90;9.57;;;17.50;99.90;;;;;;5054669;28;20204;-68
2023/08/02 04:33:16;;;;;;;10.93;10.57;;;17.40;99.90;;;;;;5057529;28;20233;-67
2023/08/02 04:35:42;;;;;;;14.45;13.95;;;17.40;99.90;;;;;;5058174;28;20208;-68
2023/08/02 04:38:09;;;;;;;11.15;10.75;;;17.40;99.90;;;;;;5057930;28;20213;-67
2023/08/02 04:40:38;;;;;;;10.73;10.33;;;17.40;99.90;;;;;;5053985;28;20199;-65
2023/08/02 04:43:05;;;;;;;11.17;10.77;;;17.30;99.90;;;;;;5056527;28;20302;-66
2023/08/02 04:45:32;;;;;;;10.95;10.55;;;17.30;99.90;;;;;;5054763;28;20231;-67
2023/08/02 04:48:00;;;;;;;10.90;10.50;;;17.40;99.90;;;;;;5058052;28;20203;-65
2023/08/02 04:50:27;;;;;;;11.33;10.93;;;17.40;99.90;;;;;;5053369;28;20218;-67
2023/08/02 04:52:53;;;;;;;11.80;11.40;;;17.40;99.90;;;;;;5054434;28;20311;-67
2023/08/02 04:55:20;;;;;;;12.60;12.20;;;17.40;99.90;;;;;;5058211;28;20204;-63
2023/08/02 04:57:48;;;;;;;13.32;12.88;;;17.40;99.90;;;;;;5057709;28;20208;-68
2023/08/02 05:00:16;;;;;;;11.93;11.53;;;17.50;99.90;;;;;;5058424;28;20549;-66
2023/08/02 05:02:43;;;;;;;10.70;10.30;;;17.50;99.90;;;;;;5058998;28;20642;-66
2023/08/02 05:05:11;;;;;;;11.77;11.37;;;17.50;99.90;;;;;;5055295;28;20231;-67
2023/08/02 05:07:39;;;;;;;11.47;11.07;;;17.60;99.90;;;;;;5053803;28;20214;-67
2023/08/02 05:10:07;;;;;;;11.03;10.63;;;17.60;99.90;;;;;;5053200;28;20231;-67
2023/08/02 05:12:34;;;;;;;11.47;11.07;;;17.70;99.90;;;;;;5053249;28;20235;-66
2023/08/02 05:15:01;;;;;;;10.73;10.40;;;17.80;99.90;;;;;;5053257;28;20206;-67
2023/08/02 05:17:29;;;;;;;12.40;12.00;;;17.80;99.90;;;;;;5053603;28;20299;-66
2023/08/02 05:19:56;;;;;;;15.63;15.03;;;17.80;99.90;;;;;;5052614;28;20208;-65
2023/08/02 05:22:24;;;;;;;11.32;10.93;;;17.80;99.90;;;;;;5053401;28;20220;-68
2023/08/02 05:24:51;;;;;;;11.13;10.73;;;17.80;99.90;;;;;;5054096;28;20575;-65
2023/08/02 05:27:18;;;;;;;12.10;11.70;;;17.90;99.90;;;;;;5053463;28;20211;-66
2023/08/02 05:29:45;;;;;;;11.50;11.10;;;17.90;99.90;;;;;;5052501;28;20208;-65
2023/08/02 05:32:12;;;;;;;11.40;11.00;;;17.90;99.90;;;;;;5049493;28;20279;-66
2023/08/02 05:34:39;;;;;;;11.50;11.10;;;18.00;99.90;;;;;;5050863;28;20334;-65
2023/08/02 05:37:06;;;;;;;12.93;12.50;;;18.00;99.90;;;;;;5054276;28;20204;-65
2023/08/02 05:39:34;;;;;;;10.20;9.83;;;17.90;99.90;;;;;;5050798;28;20291;-66
2023/08/02 05:42:01;;;;;;;13.50;13.00;;;18.00;99.90;;;;;;5045798;28;20204;-65
2023/08/02 05:44:28;;;;;;;11.75;11.35;;;18.00;99.90;;;;;;5049493;28;20200;-65
2023/08/02 05:46:55;;;;;;;11.15;10.75;;;18.10;99.90;;;;;;5052348;28;20207;-68
2023/08/02 05:49:22;;;;;;;11.50;11.10;;;18.10;99.90;;;;;;5052420;28;20738;-65
2023/08/02 05:51:49;;;;;;;12.00;11.60;;;18.10;99.90;;;;;;5053443;28;20334;-65
2023/08/02 05:54:16;;;;;;;13.70;13.20;;;18.20;99.90;;;;;;5052550;28;20228;-65
2023/08/02 05:56:44;;;;;;;11.55;11.15;;;18.20;99.90;;;;;;5052633;28;20211;-66
2023/08/02 05:59:11;;;;;;;12.53;12.07;;;18.20;99.90;;;;;;5051253;28;20208;-66
2023/08/02 06:01:38;;;;;;;11.80;11.40;;;18.30;99.90;;;;;;5051402;28;20200;-66
2023/08/02 06:04:05;;;;;;;10.30;9.93;;;18.30;99.90;;;;;;5051728;28;20258;-67
2023/08/02 06:06:32;;;;;;;10.90;10.50;;;18.30;99.90;;;;;;5050180;28;20211;-66
2023/08/02 06:08:59;;;;;;;11.10;10.70;;;18.30;99.90;;;;;;5052022;28;20203;-66
2023/08/02 06:11:26;;;;;;;11.38;10.98;;;18.30;99.90;;;;;;5050273;28;20210;-65
2023/08/02 06:13:54;;;;;;;13.23;12.73;;;18.30;99.90;;;;;;5051803;28;20242;-66
2023/08/02 06:16:22;;;;;;;11.52;11.13;;;18.30;99.90;;;;;;5053626;28;20200;-65
2023/08/02 06:18:49;;;;;;;11.93;11.53;;;18.40;99.90;;;;;;5053342;28;20235;-65
2023/08/02 06:21:16;;;;;;;11.85;11.45;;;18.30;99.90;;;;;;5052715;28;20204;-66
2023/08/02 06:23:43;;;;;;;11.40;11.00;;;18.40;99.90;;;;;;5052777;28;20255;-67
2023/08/02 06:26:09;;;;;;;11.30;10.90;;;18.40;99.90;;;;;;5051807;28;20294;-67
2023/08/02 06:28:36;;;;;;;11.48;11.07;;;18.40;99.90;;;;;;5052066;28;20218;-67
2023/08/02 06:31:05;;;;;;;11.68;11.27;;;18.40;99.90;;;;;;5051639;28;20298;-66
2023/08/02 06:33:31;;;;;;;11.73;11.32;;;18.40;99.90;;;;;;5052017;28;20727;-67
2023/08/02 06:35:58;;;;;;;12.77;12.37;;;18.40;99.90;;;;;;5051758;28;20749;-66
2023/08/02 06:38:25;;;;;;;11.88;11.48;;;18.40;99.90;;;;;;5051854;28;20554;-67
2023/08/02 06:40:52;;;;;;;12.30;11.90;;;18.40;99.90;;;;;;5051313;28;20208;-65
2023/08/02 06:43:19;;;;;;;11.27;10.87;;;18.40;99.90;;;;;;5051719;28;20223;-66
2023/08/02 06:45:46;;;;;;;10.40;10.10;;;18.40;99.90;;;;;;5052532;28;20612;-66
2023/08/02 06:48:16;;;;;;;12.27;11.87;;;18.40;99.90;;;;;;5055722;28;20208;-67
2023/08/02 06:50:43;;;;;;;12.30;11.80;;;18.40;99.90;;;;;;5061516;28;20303;-67
2023/08/02 06:53:10;;;;;;;11.70;11.30;;;18.50;99.90;;;;;;5060608;28;20728;-66
2023/08/02 06:55:37;;;;;;;11.77;11.38;;;18.50;99.90;;;;;;5059617;28;20303;-66
2023/08/02 06:58:03;;;;;;;12.13;11.73;;;18.60;99.90;;;;;;5058253;28;20208;-66
2023/08/02 07:00:32;;;;;;;12.73;12.33;;;18.50;99.90;;;;;;5054158;28;20210;-65
2023/08/02 07:03:00;;;;;;;12.87;12.47;;;18.50;99.90;;;;;;5052054;28;20220;-66
2023/08/02 07:05:28;;;;;;;12.35;11.95;;;18.60;99.90;;;;;;5053123;28;20214;-67
2023/08/02 07:07:56;;;;;;;12.68;12.27;;;18.60;99.90;;;;;;5052391;28;20208;-67
2023/08/02 07:10:23;;;;;;;11.63;11.23;;;18.60;99.90;;;;;;5050248;28;20212;-67
2023/08/02 07:12:50;;;;;;;11.43;11.02;;;18.60;99.90;;;;;;5051485;28;20227;-67
2023/08/02 07:15:17;;;;;;;14.40;13.90;;;18.70;99.90;;;;;;5051384;28;20257;-67
2023/08/02 07:17:44;;;;;;;12.73;12.23;;;18.60;99.90;;;;;;5051210;28;20212;-67
2023/08/02 07:20:11;;;;;;;19.73;18.93;;;18.60;99.90;;;;;;5050272;28;20261;-67
2023/08/02 07:22:40;;;;;;;13.95;13.45;;;18.60;99.90;;;;;;5051072;28;20601;-65
2023/08/02 07:25:08;;;;;;;12.05;11.65;;;18.60;99.90;;;;;;5051298;28;20580;-66
2023/08/02 07:27:35;;;;;;;12.33;11.87;;;18.70;99.90;;;;;;5051006;28;20686;-67
2023/08/02 07:30:02;;;;;;;12.43;12.03;;;18.70;99.90;;;;;;5047565;28;20216;-68
2023/08/02 07:32:29;;;;;;;11.50;11.10;;;18.70;99.90;;;;;;5049218;28;20223;-67
2023/08/02 07:34:57;;;;;;;13.20;12.70;;;18.70;99.90;;;;;;5050150;28;20318;-65
2023/08/02 07:37:24;;;;;;;14.50;14.00;;;18.60;99.90;;;;;;5049090;28;20303;-67
2023/08/02 07:39:52;;;;;;;13.40;12.90;;;18.70;99.90;;;;;;5050048;28;20214;-65
2023/08/02 07:42:19;;;;;;;12.43;12.02;;;18.70;99.90;;;;;;5050719;28;20208;-66
2023/08/02 07:45:01;;;;;;;11.90;11.50;;;18.70;99.90;;;;;;5050095;28;20207;-66
2023/08/02 07:47:28;;;;;;;12.30;11.90;;;18.70;99.90;;;;;;5050964;28;20319;-65
2023/08/02 07:49:55;;;;;;;12.32;11.93;;;18.70;99.90;;;;;;5050847;28;20583;-66
2023/08/02 07:52:21;;;;;;;11.55;11.15;;;18.80;99.90;;;;;;5051695;28;20579;-66
2023/08/02 07:54:48;;;;;;;12.70;12.30;;;18.70;99.90;;;;;;5051177;28;20235;-66
2023/08/02 07:57:16;;;;;;;11.55;11.15;;;18.70;99.90;;;;;;5050788;28;20200;-66
2023/08/02 07:59:43;;;;;;;12.93;12.53;;;18.80;99.90;;;;;;5049196;28;20208;-66
2023/08/02 08:02:10;;;;;;;15.30;14.80;;;18.80;99.90;;;;;;5050649;28;20208;-66
2023/08/02 08:04:37;;;;;;;12.45;12.05;;;18.90;99.90;;;;;;5050168;28;20226;-66
2023/08/02 08:07:04;;;;;;;13.82;13.32;;;18.90;99.90;;;;;;5050607;28;20218;-65
2023/08/02 08:09:32;;;;;;;12.87;12.43;;;18.90;99.90;;;;;;5048239;28;20210;-65
2023/08/02 08:12:02;;;;;;;13.77;13.27;;;18.90;99.90;;;;;;5051304;28;20206;-65
2023/08/02 08:14:30;;;;;;;13.32;12.82;;;18.80;99.90;;;;;;5047244;22;20221;-65
2023/08/02 08:16:58;;;;;;;11.55;11.15;;;18.90;99.90;;;;;;5030457;28;20209;-65
2023/08/02 08:19:25;;;;;;;12.77;12.27;;;18.90;99.90;;;;;;5029856;28;20787;-66
2023/08/02 08:21:51;;;;;;;14.00;13.50;;;19.00;99.90;;;;;;5030915;28;20205;-66
2023/08/02 08:24:19;;;;;;;13.20;12.73;;;18.90;99.90;;;;;;5029901;28;20223;-66
2023/08/02 08:26:45;;;;;;;13.50;13.02;;;18.90;99.90;;;;;;5029067;28;20204;-66
2023/08/02 08:29:13;;;;;;;13.40;12.93;;;18.90;99.90;;;;;;5028375;28;20260;-65
2023/08/02 08:31:41;;;;;;;13.07;12.60;;;19.00;99.90;;;;;;5030243;28;20354;-66
2023/08/02 08:34:08;;;;;;;15.47;14.97;;;19.00;99.90;;;;;;5029424;28;20247;-65
2023/08/02 08:36:35;;;;;;;19.13;18.42;;;19.00;99.90;;;;;;5029529;28;20204;-67
2023/08/02 08:39:02;;;;;;;12.77;12.38;;;19.00;99.90;;;;;;5029291;28;20311;-66
2023/08/02 08:41:29;;;;;;;13.02;12.63;;;19.00;99.90;;;;;;5030605;28;20208;-65
2023/08/02 08:43:56;;;;;;;13.65;13.15;;;19.00;99.90;;;;;;5036137;28;20224;-64
2023/08/02 08:46:24;;;;;;;14.00;13.40;;;19.00;99.90;;;;;;5046614;28;20211;-65
2023/08/02 08:48:52;;;;;;;21.83;20.97;;;19.00;99.90;;;;;;5049747;28;20219;-66
2023/08/02 08:51:22;;;;;;;13.50;13.00;;;19.00;99.90;;;;;;5048333;28;20267;-65
2023/08/02 08:53:49;;;;;;;12.57;12.18;;;19.00;99.90;;;;;;5034995;28;20224;-66
2023/08/02 08:56:18;;;;;;;30.40;28.88;;;19.00;99.90;;;;;;5029531;28;20216;-66
2023/08/02 08:58:45;;;;;;;12.63;12.20;;;19.00;99.90;;;;;;5031593;28;20723;-65
2023/08/02 09:01:13;;;;;;;11.87;11.47;;;19.10;99.90;;;;;;5029957;28;20208;-66
2023/08/02 09:03:40;;;;;;;13.97;13.47;;;19.00;99.90;;;;;;5028948;28;20224;-65
2023/08/02 09:06:08;;;;;;;13.27;12.77;;;18.90;99.90;;;;;;5029410;28;20211;-67
2023/08/02 09:08:47;;;;;;;17.30;16.60;;;19.00;99.90;;;;;;5029185;28;20225;-65
2023/08/02 09:11:15;;;;;;;12.20;11.80;;;18.90;99.90;;;;;;5028296;28;20184;-65
2023/08/02 09:13:42;;;;;;;11.20;10.80;;;18.90;99.90;;;;;;5028543;28;20336;-66
2023/08/02 09:16:10;;;;;;;12.57;12.18;;;18.90;99.90;;;;;;5029258;28;20223;-66
2023/08/02 09:18:39;;;;;;;13.82;13.32;;;18.90;99.90;;;;;;5028710;28;20217;-64
2023/08/02 09:21:08;;;;;;;13.85;13.35;;;18.90;99.90;;;;;;5028669;28;20647;-66
2023/08/02 09:23:35;;;;;;;13.75;13.25;;;18.90;99.90;;;;;;5028592;28;20761;-67
2023/08/02 09:26:14;;;;;;;13.00;12.50;;;19.00;99.90;;;;;;5031093;28;20208;-66
2023/08/02 09:28:41;;;;;;;13.57;13.07;;;19.00;99.90;;;;;;5032554;28;20205;-66
2023/08/02 09:31:15;;;;;;;14.38;13.88;;;19.00;99.90;;;;;;5031485;28;20220;-66
2023/08/02 09:33:49;;;;;;;12.30;11.90;;;19.10;99.90;;;;;;5032083;28;20278;-64
2023/08/02 09:36:24;;;;;;;13.67;13.17;;;19.10;99.90;;;;;;5032201;28;20189;-66
2023/08/02 09:38:58;;;;;;;12.95;12.50;;;19.20;99.90;;;;;;5032657;28;20194;-66
2023/08/02 09:41:26;;;;;;;14.07;13.57;;;19.20;99.90;;;;;;5032695;28;20545;-65
2023/08/02 09:43:53;;;;;;;12.13;11.73;;;19.30;99.90;;;;;;5032947;28;20228;-65
2023/08/02 09:46:25;;;;;;;13.30;12.80;;;19.30;99.90;;;;;;5033255;28;20291;-66
2023/08/02 09:48:51;;;;;;;12.77;12.27;;;19.40;99.90;;;;;;5032520;28;20216;-67
2023/08/02 09:51:18;;;;;;;12.97;12.53;;;19.40;99.90;;;;;;5030008;28;20212;-66
2023/08/02 09:53:55;;;;;;;12.30;11.90;;;19.40;99.90;;;;;;5032676;28;20243;-66
2023/08/02 09:56:24;;;;;;;12.13;11.73;;;19.40;99.90;;;;;;5032952;28;20298;-65
2023/08/02 09:58:55;;;;;;;13.18;12.70;;;19.50;99.90;;;;;;5033031;28;20659;-67
2023/08/02 10:01:24;;;;;;;13.10;12.60;;;19.60;99.90;;;;;;5028120;28;20204;-67
2023/08/02 10:03:55;;;;;;;13.80;13.30;;;19.60;99.90;;;;;;5013573;28;20269;-67
2023/08/02 10:06:24;;;;;;;12.73;12.33;;;19.80;99.90;;;;;;5022449;28;20258;-67
2023/08/02 10:08:54;;;;;;;13.00;12.60;;;19.90;99.90;;;;;;5024659;28;20280;-67
2023/08/02 10:11:24;;;;;;;11.93;11.52;;;20.00;99.90;;;;;;5022913;28;20197;-67
2023/08/02 10:13:54;;;;;;;11.75;11.35;;;20.10;99.90;;;;;;5022678;28;20254;-65
2023/08/02 10:16:24;;;;;;;12.93;12.43;;;20.20;99.90;;;;;;5022658;28;20690;-66
2023/08/02 10:18:52;;;;;;;12.83;12.43;;;20.20;99.90;;;;;;5021000;28;20208;-66
2023/08/02 10:21:21;;;;;;;13.40;12.90;;;20.20;99.90;;;;;;5020487;28;20270;-65
2023/08/02 10:23:50;;;;;;;12.97;12.47;;;20.20;99.90;;;;;;5020501;28;20296;-66
2023/08/02 10:26:17;;;;;;;11.52;11.13;;;20.30;99.90;;;;;;5023378;28;20200;-66
2023/08/02 10:28:46;;;;;;;12.40;12.00;;;20.40;99.90;;;;;;5021108;28;20196;-67
2023/08/02 10:31:13;;;;;;;11.30;10.90;;;20.50;99.90;;;;;;5020944;28;20207;-66
2023/08/02 10:33:39;;;;;;;12.30;11.83;;;20.60;99.90;;;;;;5021715;28;20224;-66
2023/08/02 10:36:07;;;;;;;12.27;11.88;;;20.70;99.90;;;;;;5021372;28;20732;-67
2023/08/02 10:38:48;;;;;;;16.60;16.00;;;20.90;99.90;;;;;;5021987;28;20386;-65
2023/08/02 10:41:17;;;;;;;13.40;12.93;;;21.00;99.90;;;;;;5023044;28;20287;-65
2023/08/02 10:44:13;;;;;;;24.95;24.05;;;21.10;99.90;;;;;;5017390;28;20212;-65
2023/08/02 10:46:41;;;;;;;19.37;18.67;;;21.20;99.90;;;;;;5012342;28;20204;-66
2023/08/02 10:49:44;;;;;;;22.20;21.45;;;21.30;99.90;;;;;;5019667;28;20759;-66
2023/08/02 10:52:28;;;;;;;22.90;22.10;;;21.40;99.90;;;;;;5022545;28;20214;-64
2023/08/02 10:55:07;;;;;;;21.23;20.53;;;21.50;99.90;;;;;;5022031;28;20257;-66
2023/08/02 10:57:33;;;;;;;28.35;27.35;;;21.50;99.90;;;;;;5021082;28;20200;-66
2023/08/02 11:00:14;;;;;;;12.23;11.82;;;21.60;99.90;;;;;;5021155;28;20566;-67
2023/08/02 11:02:46;;;;;;;20.92;20.17;;;21.70;99.90;;;;;;5022142;28;20197;-64
2023/08/02 11:05:13;;;;;;;16.90;16.30;;;21.80;99.90;;;;;;5020709;28;20186;-67
2023/08/02 11:07:40;;;;;;;28.00;27.00;;;21.80;99.90;;;;;;5019023;28;20199;-67
2023/08/02 11:10:08;;;;;;;16.27;15.73;;;21.90;99.90;;;;;;5020119;28;20200;-66
2023/08/02 11:12:35;;;;;;;22.88;22.08;;;22.00;99.90;;;;;;5020474;28;20201;-66
2023/08/02 11:15:15;;;;;;;23.20;22.40;;;22.10;99.90;;;;;;5018351;28;20232;-66
2023/08/02 11:17:42;;;;;;;28.23;27.13;;;22.10;99.90;;;;;;5021044;28;20205;-66
2023/08/02 11:20:10;;;;;;;27.20;26.23;;;22.10;99.90;;;;;;5017721;28;20296;-66
2023/08/02 11:22:37;;;;;;;29.80;28.77;;;22.30;99.90;;;;;;5020826;28;20211;-66
2023/08/02 11:25:06;;;;;;;28.38;27.38;;;22.40;99.90;;;;;;5018846;28;20707;-67
2023/08/02 11:27:34;;;;;;;31.33;30.23;;;22.40;99.90;;;;;;5020421;28;20196;-66
2023/08/02 11:30:04;;;;;;;26.40;25.50;;;22.50;99.90;;;;;;5019703;28;20703;-67
2023/08/02 11:32:32;;;;;;;37.67;36.27;;;22.60;99.90;;;;;;5020498;28;20235;-65
2023/08/02 11:34:59;;;;;;;28.40;27.40;;;22.60;99.90;;;;;;5022678;28;20233;-65
2023/08/02 11:37:27;;;;;;;27.45;26.48;;;22.70;99.90;;;;;;5020460;28;20222;-66
2023/08/02 11:39:55;;;;;;;21.73;20.92;;;22.70;99.90;;;;;;5020064;28;20295;-66
2023/08/02 11:42:22;;;;;;;20.00;19.30;;;22.80;99.90;;;;;;5021339;28;20295;-66
2023/08/02 11:44:50;;;;;;;19.95;19.25;;;22.90;99.90;;;;;;5019293;28;20221;-66
2023/08/02 11:47:18;;;;;;;17.23;16.63;;;23.00;99.90;;;;;;5032541;28;20196;-66
2023/08/02 11:49:50;;;;;;;24.75;23.90;;;23.00;99.90;;;;;;5031045;28;20271;-66
2023/08/02 11:52:25;;;;;;;25.35;24.45;;;23.00;99.90;;;;;;5043155;28;20247;-67
2023/08/02 11:54:53;;;;;;;22.13;21.33;;;23.00;99.90;;;;;;5022715;28;20237;-67
2023/08/02 11:57:21;;;;;;;21.42;20.67;;;23.10;99.90;;;;;;5019873;28;20205;-67
2023/08/02 11:59:48;;;;;;;22.88;22.08;;;23.20;99.90;;;;;;5020253;28;20197;-66
2023/08/02 12:02:28;;;;;;;27.50;26.48;;;23.20;99.90;;;;;;5020240;28;20663;-66
2023/08/02 12:04:55;;;;;;;33.15;31.83;;;23.10;99.90;;;;;;5020026;28;20217;-67
2023/08/02 12:07:26;;;;;;;26.85;25.92;;;23.20;99.90;;;;;;5018211;28;20198;-67
2023/08/02 12:09:53;;;;;;;41.10;39.40;;;23.10;99.90;;;;;;5021234;28;20256;-68
2023/08/02 12:12:20;;;;;;;23.27;22.48;;;23.10;99.90;;;;;;5018936;28;20562;-66
2023/08/02 12:14:46;;;;;;;26.85;25.95;;;23.20;99.90;;;;;;5020747;28;20358;-67
2023/08/02 12:17:18;;;;;;;27.15;26.15;;;23.20;99.90;;;;;;5019212;28;20628;-68
2023/08/02 12:19:46;;;;;;;28.05;27.05;;;23.20;99.90;;;;;;5018146;28;20280;-66
2023/08/02 12:22:14;;;;;;;32.97;31.77;;;23.20;99.90;;;;;;5016559;28;20595;-66
2023/08/02 12:24:41;;;;;;;25.17;24.27;;;23.30;99.90;;;;;;5019737;28;20721;-67
2023/08/02 12:27:18;;;;;;;28.05;27.05;;;23.30;99.90;;;;;;5018946;28;20212;-67
2023/08/02 12:29:46;;;;;;;38.60;37.15;;;23.30;99.90;;;;;;5026494;28;20227;-70
2023/08/02 12:32:25;;;;;;;26.23;25.33;;;23.40;99.90;;;;;;5031685;28;20243;-68